Time;durP1;ratioP1;P1;durP2;ratioP2;P2;SDS_P1;SDS_P2;PMS_P1;PMS_P2;Temp;Humidity;BMP_temperature;BMP_pressure;BME280_temperature;BME280_humidity;BME280_pressure;Samples;Min_cycle;Max_cycle;Signal;HPM_P1;HPM_P2
2023/03/28 02:00:30;;;;;;;12.93;11.93;;;1.70;99.90;;;;;;6017483;23;20374;31
2023/03/28 02:03:11;;;;;;;13.30;12.10;;;1.70;99.90;;;;;;4907430;29;20687;-76
2023/03/28 02:05:44;;;;;;;12.33;11.33;;;1.70;99.90;;;;;;4904322;29;20516;-76
2023/03/28 02:08:16;;;;;;;12.60;11.60;;;1.60;99.90;;;;;;4913114;29;20460;-76
2023/03/28 02:11:03;;;;;;;12.17;11.27;;;1.60;99.90;;;;;;4904858;29;20488;-76
2023/03/28 02:13:43;;;;;;;12.30;11.40;;;1.50;99.90;;;;;;4915773;29;20526;-76
2023/03/28 02:16:53;;;;;;;11.93;10.87;;;1.50;99.90;;;;;;4859717;29;20587;-76
2023/03/28 02:19:38;;;;;;;12.07;11.00;;;1.50;99.90;;;;;;4903698;29;20457;-76
2023/03/28 02:22:15;;;;;;;12.60;11.70;;;1.50;99.90;;;;;;4912850;29;20471;-76
2023/03/28 02:25:03;;;;;;;12.90;11.80;;;1.50;99.90;;;;;;4896210;29;20432;-76
2023/03/28 02:27:40;;;;;;;12.90;11.90;;;1.50;99.90;;;;;;4909681;29;20468;-76
2023/03/28 02:30:22;;;;;;;13.53;12.37;;;1.50;99.90;;;;;;4910032;29;20993;-76
2023/03/28 02:32:51;;;;;;;12.93;11.93;;;1.40;99.90;;;;;;4906468;29;20455;-76
2023/03/28 02:35:29;;;;;;;13.20;12.20;;;1.40;99.90;;;;;;4905298;29;20481;-76
2023/03/28 02:38:04;;;;;;;12.47;11.53;;;1.40;99.90;;;;;;4906347;29;20542;-76
2023/03/28 02:40:50;;;;;;;12.43;11.60;;;1.30;99.90;;;;;;4909776;29;20439;-76
2023/03/28 02:43:34;;;;;;;13.80;12.57;;;1.30;99.90;;;;;;4912243;29;20482;-77
2023/03/28 02:46:11;;;;;;;13.17;12.10;;;1.30;99.90;;;;;;4910232;29;20815;-76
2023/03/28 02:49:03;;;;;;;12.67;11.73;;;1.20;99.90;;;;;;4905429;29;20463;-75
2023/03/28 02:51:39;;;;;;;13.70;12.50;;;1.20;99.90;;;;;;4901150;29;20572;-77
2023/03/28 02:54:22;;;;;;;13.80;12.70;;;1.20;99.90;;;;;;4890340;29;20455;-79
2023/03/28 02:57:12;;;;;;;13.80;12.80;;;1.20;99.90;;;;;;4902409;29;20596;-79
2023/03/28 02:59:51;;;;;;;13.77;12.63;;;1.20;99.90;;;;;;4902230;29;20472;-78
2023/03/28 03:02:20;;;;;;;13.80;12.70;;;1.10;99.90;;;;;;4896422;29;20479;-78
2023/03/28 03:04:50;;;;;;;13.33;12.43;;;1.10;99.90;;;;;;4888885;29;20885;-78
2023/03/28 03:07:17;;;;;;;13.47;12.47;;;1.10;99.90;;;;;;4892888;29;20915;-78
2023/03/28 03:09:45;;;;;;;13.33;12.37;;;1.10;99.90;;;;;;4906568;29;20456;-78
2023/03/28 03:12:12;;;;;;;13.60;12.60;;;1.10;99.90;;;;;;4885478;29;20476;-78
2023/03/28 03:14:39;;;;;;;14.53;13.23;;;1.10;99.90;;;;;;4887963;29;20452;-78
2023/03/28 03:17:29;;;;;;;13.70;12.70;;;1.00;99.90;;;;;;4888627;29;20466;-77
2023/03/28 03:19:58;;;;;;;14.50;13.20;;;1.10;99.90;;;;;;4896286;29;20456;-80
2023/03/28 03:22:35;;;;;;;13.57;12.53;;;1.00;99.90;;;;;;4903162;29;20480;-82
2023/03/28 03:25:05;;;;;;;14.00;13.00;;;1.00;99.90;;;;;;4914278;29;20525;-77
2023/03/28 03:27:38;;;;;;;15.47;14.17;;;1.10;99.90;;;;;;4906289;29;20458;-79
2023/03/28 03:30:10;;;;;;;14.43;13.33;;;1.00;99.90;;;;;;4912156;29;20459;-80
2023/03/28 03:32:57;;;;;;;13.83;12.80;;;1.00;99.90;;;;;;4908620;29;20436;-79
2023/03/28 03:35:34;;;;;;;14.70;13.40;;;0.90;99.90;;;;;;4906060;29;21031;-79
2023/03/28 03:38:04;;;;;;;15.20;13.90;;;0.90;99.90;;;;;;4895925;29;20849;-78
2023/03/28 03:40:31;;;;;;;15.30;14.07;;;0.80;99.90;;;;;;4904021;29;20477;-78
2023/03/28 03:42:59;;;;;;;15.37;14.17;;;0.70;99.90;;;;;;4905492;29;20447;-78
2023/03/28 03:45:26;;;;;;;15.70;14.50;;;0.70;99.90;;;;;;4908064;29;20550;-76
2023/03/28 03:47:53;;;;;;;15.20;14.10;;;0.70;99.90;;;;;;4892911;29;20507;-76
2023/03/28 03:50:20;;;;;;;15.60;14.27;;;0.70;99.90;;;;;;4895455;29;20461;-76
2023/03/28 03:52:49;;;;;;;14.60;13.60;;;0.70;99.90;;;;;;4895357;29;20487;-76
2023/03/28 03:55:16;;;;;;;15.17;14.07;;;0.70;99.90;;;;;;4895527;29;20984;-76
2023/03/28 03:57:44;;;;;;;14.37;13.37;;;0.60;99.90;;;;;;4898237;29;20465;-76
2023/03/28 04:00:13;;;;;;;15.20;14.00;;;0.60;99.90;;;;;;4912128;29;20492;-76
2023/03/28 04:02:46;;;;;;;15.87;14.57;;;0.50;99.90;;;;;;4912235;29;21041;-76
2023/03/28 04:05:18;;;;;;;15.70;14.37;;;0.60;99.90;;;;;;4910773;29;20558;-77
2023/03/28 04:08:02;;;;;;;14.83;13.73;;;0.60;99.90;;;;;;4901129;29;20447;-76
2023/03/28 04:10:35;;;;;;;14.90;13.63;;;0.50;99.90;;;;;;4907807;29;20453;-76
2023/03/28 04:13:02;;;;;;;16.20;14.87;;;0.50;99.90;;;;;;4907278;29;20481;-76
2023/03/28 04:15:30;;;;;;;15.00;13.80;;;0.50;99.90;;;;;;4907364;29;20551;-76
2023/03/28 04:18:33;;;;;;;15.50;14.40;;;0.40;99.90;;;;;;4914158;29;20470;-76
2023/03/28 04:21:01;;;;;;;16.53;15.03;;;0.50;99.90;;;;;;4912660;29;20477;-76
2023/03/28 04:23:42;;;;;;;15.33;14.13;;;0.50;99.90;;;;;;4912927;29;20868;-77
2023/03/28 04:26:25;;;;;;;16.13;14.70;;;0.50;99.90;;;;;;4912372;29;20446;-76
2023/03/28 04:29:02;;;;;;;15.97;14.77;;;0.50;99.90;;;;;;4899856;29;20454;-76
2023/03/28 04:31:34;;;;;;;16.50;15.10;;;0.50;99.90;;;;;;4910029;29;20480;-75
2023/03/28 04:34:24;;;;;;;17.50;16.07;;;0.50;99.90;;;;;;4904274;29;20967;-76
2023/03/28 04:37:09;;;;;;;17.27;15.80;;;0.50;99.90;;;;;;4907790;29;20467;-76
2023/03/28 04:39:52;;;;;;;16.20;15.00;;;0.50;99.90;;;;;;4912197;29;20517;-77
2023/03/28 04:42:37;;;;;;;16.73;15.50;;;0.50;99.90;;;;;;4911251;29;20494;-75
2023/03/28 04:45:17;;;;;;;17.03;15.63;;;0.50;99.90;;;;;;4912195;29;20951;-76
2023/03/28 04:47:44;;;;;;;16.27;15.07;;;0.50;99.90;;;;;;4914152;29;20462;-76
2023/03/28 04:50:17;;;;;;;16.90;15.50;;;0.50;99.90;;;;;;4910186;29;20468;-76
2023/03/28 04:52:44;;;;;;;17.07;15.47;;;0.50;99.90;;;;;;4915647;29;21027;-75
2023/03/28 04:55:14;;;;;;;16.07;14.87;;;0.40;99.90;;;;;;4913146;29;20445;-76
2023/03/28 04:57:41;;;;;;;16.40;15.10;;;0.40;99.90;;;;;;4903143;29;20460;-77
2023/03/28 05:00:12;;;;;;;16.47;15.17;;;0.40;99.90;;;;;;4910415;29;20493;-76
2023/03/28 05:03:13;;;;;;;17.40;15.83;;;0.30;99.90;;;;;;4882781;29;20509;-76
2023/03/28 05:05:51;;;;;;;17.07;15.63;;;0.30;99.90;;;;;;4911323;29;20470;-77
2023/03/28 05:08:21;;;;;;;16.97;15.57;;;0.30;99.90;;;;;;4910882;29;20446;-76
2023/03/28 05:10:50;;;;;;;18.13;16.53;;;0.30;99.90;;;;;;4909633;29;21011;-76
2023/03/28 05:13:18;;;;;;;16.77;15.47;;;0.30;99.90;;;;;;4910533;29;21001;-76
2023/03/28 05:15:57;;;;;;;17.47;16.07;;;0.30;99.90;;;;;;4897300;29;20465;-77
2023/03/28 05:18:44;;;;;;;17.13;15.83;;;0.30;99.90;;;;;;4911960;29;20533;-76
2023/03/28 05:21:12;;;;;;;17.97;16.47;;;0.30;99.90;;;;;;4912200;29;20850;-76
2023/03/28 05:23:39;;;;;;;16.73;15.33;;;0.20;99.90;;;;;;4913941;29;20458;-76
2023/03/28 05:26:16;;;;;;;18.23;16.73;;;0.20;99.90;;;;;;4885132;29;20460;-76
2023/03/28 05:28:43;;;;;;;18.33;16.83;;;0.30;99.90;;;;;;4899432;29;20512;-76
2023/03/28 05:31:10;;;;;;;17.90;16.30;;;0.30;99.90;;;;;;4908907;29;20478;-76
2023/03/28 05:33:37;;;;;;;17.67;16.27;;;0.40;99.90;;;;;;4913405;29;20446;-76
2023/03/28 05:36:05;;;;;;;17.00;15.50;;;0.40;99.90;;;;;;4910951;29;20997;-79
2023/03/28 05:38:33;;;;;;;17.20;15.70;;;0.40;99.90;;;;;;4910055;29;20548;-78
2023/03/28 05:41:06;;;;;;;17.73;16.23;;;0.40;99.90;;;;;;4912751;29;20514;-78
2023/03/28 05:43:35;;;;;;;16.60;15.30;;;0.50;99.90;;;;;;4914781;29;20459;-78
2023/03/28 05:46:02;;;;;;;16.63;15.23;;;0.50;99.90;;;;;;4916016;29;20459;-78
2023/03/28 05:48:37;;;;;;;16.87;15.40;;;0.50;99.90;;;;;;4913028;29;20453;-78
2023/03/28 05:51:05;;;;;;;16.27;14.97;;;0.50;99.90;;;;;;4911828;29;20915;-79
2023/03/28 05:53:34;;;;;;;16.83;15.53;;;0.60;99.90;;;;;;4912326;29;20485;-79
2023/03/28 05:56:01;;;;;;;17.63;16.20;;;0.90;99.90;;;;;;4910994;29;20942;-78
2023/03/28 05:58:28;;;;;;;17.83;16.20;;;1.10;99.90;;;;;;4902136;29;20457;-78
2023/03/28 06:00:57;;;;;;;18.33;16.83;;;1.50;99.90;;;;;;4913003;29;20483;-79
2023/03/28 06:03:26;;;;;;;17.47;15.87;;;1.70;99.90;;;;;;4913056;29;20485;-78
2023/03/28 06:05:53;;;;;;;17.03;15.57;;;1.90;99.90;;;;;;4906417;29;20204;-79
2023/03/28 06:08:22;;;;;;;17.83;16.23;;;2.20;99.90;;;;;;4910912;29;20593;-79
2023/03/28 06:10:50;;;;;;;16.57;15.17;;;2.30;99.90;;;;;;4908847;29;20331;-78
2023/03/28 06:13:26;;;;;;;15.60;14.20;;;2.70;99.90;;;;;;4908518;29;20227;-78
2023/03/28 06:15:54;;;;;;;14.60;13.50;;;3.00;99.90;;;;;;4907641;29;20196;-79
2023/03/28 06:18:30;;;;;;;14.53;13.50;;;3.20;99.90;;;;;;4911759;29;20203;-78
2023/03/28 06:20:57;;;;;;;16.20;14.70;;;3.30;99.90;;;;;;4909489;29;20226;-79
2023/03/28 06:23:24;;;;;;;15.47;14.13;;;3.40;99.90;;;;;;4909222;29;20201;-78
2023/03/28 06:25:51;;;;;;;13.17;11.97;;;3.50;99.90;;;;;;4912385;29;20319;-78
2023/03/28 06:28:19;;;;;;;12.93;11.80;;;3.60;99.90;;;;;;4908369;29;20214;-77
2023/03/28 06:31:07;;;;;;;15.60;14.30;;;3.70;99.90;;;;;;4913885;29;20247;-78
2023/03/28 06:33:37;;;;;;;14.63;13.23;;;3.90;99.90;;;;;;4911497;29;20275;-78
2023/03/28 06:36:05;;;;;;;15.10;13.90;;;4.00;99.90;;;;;;4907736;29;20247;-78
2023/03/28 06:38:34;;;;;;;14.70;13.50;;;4.00;99.90;;;;;;4906532;29;20236;-78
2023/03/28 06:41:00;;;;;;;15.37;14.13;;;4.00;99.90;;;;;;4907102;29;20219;-78
2023/03/28 06:43:29;;;;;;;16.20;14.50;;;4.00;99.90;;;;;;4911260;29;20204;-79
2023/03/28 06:46:29;;;;;;;15.43;14.30;;;4.10;99.90;;;;;;4910183;29;20687;-78
2023/03/28 06:48:57;;;;;;;15.80;14.50;;;4.10;99.90;;;;;;4911466;29;20204;-79
2023/03/28 06:51:24;;;;;;;15.67;14.27;;;4.20;99.90;;;;;;4911241;29;20319;-79
2023/03/28 06:53:51;;;;;;;14.13;13.10;;;4.40;99.90;;;;;;4907279;29;20846;-78
2023/03/28 06:56:23;;;;;;;17.30;15.90;;;4.60;99.90;;;;;;4905464;29;20838;-79
2023/03/28 06:58:50;;;;;;;16.30;14.90;;;4.80;99.90;;;;;;4912688;29;20207;-78
2023/03/28 07:01:21;;;;;;;15.63;14.33;;;4.90;99.90;;;;;;4909865;29;20338;-78
2023/03/28 07:03:53;;;;;;;14.80;13.43;;;5.20;99.90;;;;;;4910461;29;20197;-78
2023/03/28 07:06:26;;;;;;;13.97;12.97;;;5.60;99.90;;;;;;4910427;29;20216;-79
2023/03/28 07:08:54;;;;;;;13.23;12.30;;;5.70;99.90;;;;;;4909337;29;20203;-79
2023/03/28 07:11:26;;;;;;;13.53;12.47;;;6.00;99.90;;;;;;4909254;29;20227;-80
2023/03/28 07:13:53;;;;;;;13.50;12.40;;;6.10;99.90;;;;;;4904158;29;20246;-79
2023/03/28 07:16:20;;;;;;;13.73;12.47;;;6.30;99.90;;;;;;4908038;29;20268;-79
2023/03/28 07:18:48;;;;;;;10.17;6.83;;;6.70;99.90;;;;;;4904867;29;20311;-80
2023/03/28 07:21:21;;;;;;;14.60;13.50;;;7.20;99.90;;;;;;4900042;29;20257;-79
2023/03/28 07:23:49;;;;;;;13.87;12.90;;;7.30;99.90;;;;;;4894754;29;20211;-76
2023/03/28 07:26:20;;;;;;;13.50;12.50;;;7.50;99.90;;;;;;4900044;29;20203;-81
2023/03/28 07:28:48;;;;;;;13.10;11.80;;;8.00;99.90;;;;;;4909871;29;20740;-78
2023/03/28 07:31:15;;;;;;;9.50;5.90;;;8.10;99.90;;;;;;4910292;29;20223;-77
2023/03/28 07:33:42;;;;;;;8.93;6.53;;;8.30;99.90;;;;;;4909874;29;20239;-76
2023/03/28 07:36:13;;;;;;;6.00;5.33;;;8.50;99.90;;;;;;4907045;29;20199;-77
2023/03/28 07:38:41;;;;;;;9.97;5.27;;;8.70;99.90;;;;;;4899688;29;20228;-77
2023/03/28 07:41:11;;;;;;;5.33;4.17;;;8.80;99.90;;;;;;4906670;29;20220;-77
2023/03/28 07:43:39;;;;;;;8.00;7.23;;;9.10;99.90;;;;;;4904596;29;20248;-77
2023/03/28 07:46:07;;;;;;;8.00;5.53;;;9.40;99.90;;;;;;4895572;29;20204;-77
2023/03/28 07:48:35;;;;;;;10.30;9.30;;;9.70;99.90;;;;;;4895612;29;20209;-80
2023/03/28 07:51:05;;;;;;;10.33;9.33;;;9.70;99.90;;;;;;4896858;29;20229;-79
2023/03/28 07:53:32;;;;;;;12.90;11.70;;;10.00;99.90;;;;;;4901557;29;20242;-80
2023/03/28 07:55:59;;;;;;;10.60;9.70;;;10.10;99.90;;;;;;4904186;29;20645;-80
2023/03/28 07:58:37;;;;;;;11.43;10.43;;;10.40;99.90;;;;;;4898869;29;20214;-79
2023/03/28 08:01:10;;;;;;;11.30;10.20;;;10.70;99.90;;;;;;4897987;29;20231;-77
2023/03/28 08:04:00;;;;;;;10.53;9.73;;;10.90;99.90;;;;;;4899654;29;20254;-77
2023/03/28 08:06:38;;;;;;;11.77;9.90;;;11.30;99.90;;;;;;4899122;29;20306;-77
2023/03/28 08:09:06;;;;;;;10.70;9.80;;;11.40;99.90;;;;;;4898820;29;20675;-77
2023/03/28 08:11:45;;;;;;;10.57;9.47;;;11.30;99.90;;;;;;4898751;29;20248;-77
2023/03/28 08:14:15;;;;;;;9.10;8.40;;;11.60;99.90;;;;;;4902479;29;20230;-77
2023/03/28 08:16:43;;;;;;;9.43;8.30;;;11.80;99.90;;;;;;4899234;29;20649;-77
2023/03/28 08:19:10;;;;;;;10.73;9.50;;;11.80;99.90;;;;;;4898604;29;20203;-77
2023/03/28 08:21:46;;;;;;;10.23;9.43;;;11.60;99.90;;;;;;4898491;29;20231;-77
2023/03/28 08:24:14;;;;;;;8.83;8.13;;;11.70;99.90;;;;;;4898735;29;20259;-77
2023/03/28 08:26:51;;;;;;;10.33;9.33;;;11.00;99.90;;;;;;4898397;29;20207;-77
2023/03/28 08:29:20;;;;;;;10.70;9.70;;;10.00;99.90;;;;;;4898487;29;20214;-77
2023/03/28 08:31:46;;;;;;;10.23;9.33;;;9.20;99.90;;;;;;4898433;29;20271;-78
2023/03/28 08:34:14;;;;;;;10.57;9.60;;;8.60;99.90;;;;;;4898701;29;20304;-77
2023/03/28 08:36:42;;;;;;;9.87;8.97;;;8.50;99.90;;;;;;4899019;29;20273;-80
2023/03/28 08:39:22;;;;;;;10.10;9.20;;;9.10;99.90;;;;;;4914483;29;20565;-81
2023/03/28 08:42:21;;;;;;;10.57;9.57;;;9.10;99.90;;;;;;4898961;29;20311;-81
2023/03/28 08:45:18;;;;;;;9.87;8.90;;;8.60;99.90;;;;;;4867556;29;20207;-79
2023/03/28 08:47:54;;;;;;;10.07;9.07;;;8.80;99.90;;;;;;4904213;29;20207;-78
2023/03/28 08:50:27;;;;;;;10.13;9.10;;;9.30;99.90;;;;;;4904085;29;20208;-78
2023/03/28 08:52:55;;;;;;;9.77;8.77;;;9.50;99.90;;;;;;4904213;29;20240;-79
2023/03/28 08:55:32;;;;;;;10.10;8.57;;;9.80;99.90;;;;;;4903912;29;20233;-80
2023/03/28 08:57:59;;;;;;;13.70;8.93;;;10.40;99.90;;;;;;4902779;29;20213;-79
2023/03/28 09:00:30;;;;;;;12.57;9.00;;;10.70;99.90;;;;;;4904533;29;20266;-79
2023/03/28 09:02:57;;;;;;;9.43;8.53;;;11.10;99.90;;;;;;4900679;29;20575;-81
2023/03/28 09:05:34;;;;;;;9.33;8.50;;;11.30;99.90;;;;;;4902688;29;20211;-78
2023/03/28 09:08:27;;;;;;;10.63;9.93;;;11.70;99.90;;;;;;4902045;29;20326;-79
2023/03/28 09:11:03;;;;;;;10.53;9.63;;;12.00;99.90;;;;;;4893281;29;20247;-77
2023/03/28 09:13:40;;;;;;;10.97;9.87;;;12.00;99.90;;;;;;4897172;29;20307;-77
2023/03/28 09:16:32;;;;;;;10.60;9.80;;;12.00;99.90;;;;;;4896860;29;20683;-78
2023/03/28 09:19:32;;;;;;;9.73;8.90;;;10.80;99.90;;;;;;4897468;29;20561;-77
2023/03/28 09:22:33;;;;;;;10.67;9.77;;;10.30;99.90;;;;;;4896348;29;20252;-77
2023/03/28 09:25:12;;;;;;;10.33;9.43;;;10.30;99.90;;;;;;4896910;29;20713;-77
2023/03/28 09:27:55;;;;;;;10.37;9.37;;;10.80;99.90;;;;;;4899106;29;20294;-80
2023/03/28 09:30:25;;;;;;;10.30;9.40;;;10.90;99.90;;;;;;4889704;29;20681;-77
2023/03/28 09:32:59;;;;;;;10.23;9.50;;;11.40;99.90;;;;;;4894490;29;20238;-77
2023/03/28 09:35:29;;;;;;;9.67;8.97;;;11.60;99.90;;;;;;4896864;29;20223;-78
2023/03/28 09:38:00;;;;;;;9.53;8.63;;;12.00;99.90;;;;;;4896380;29;20669;-78
2023/03/28 09:40:29;;;;;;;10.30;9.30;;;12.30;99.90;;;;;;4896591;29;20298;-77
2023/03/28 09:43:25;;;;;;;10.00;9.00;;;11.90;99.90;;;;;;4897347;29;20218;-77
2023/03/28 09:46:05;;;;;;;9.90;9.00;;;11.20;99.90;;;;;;4896157;29;20604;-78
2023/03/28 09:49:16;;;;;;;10.00;9.20;;;10.30;99.90;;;;;;4869167;29;20207;-78
2023/03/28 09:51:45;;;;;;;9.60;8.90;;;10.10;99.90;;;;;;4853432;29;20246;-77
2023/03/28 09:54:12;;;;;;;10.40;9.60;;;10.50;99.90;;;;;;4869836;29;20286;-77
2023/03/28 09:56:42;;;;;;;12.00;10.20;;;10.90;99.90;;;;;;4896510;29;20709;-77
2023/03/28 09:59:34;;;;;;;10.20;9.30;;;10.90;99.90;;;;;;4897193;29;20270;-77
2023/03/28 10:02:25;;;;;;;8.97;8.27;;;10.60;99.90;;;;;;4895652;29;20229;-77
2023/03/28 10:04:53;;;;;;;9.03;8.20;;;10.60;99.90;;;;;;4895894;29;20678;-77
2023/03/28 10:07:42;;;;;;;8.67;8.00;;;10.70;99.90;;;;;;4897747;29;20331;-79
2023/03/28 10:10:28;;;;;;;8.23;7.70;;;10.60;99.90;;;;;;4902514;29;20221;-78
2023/03/28 10:13:06;;;;;;;8.80;8.10;;;10.30;99.90;;;;;;4913891;29;20229;-78
2023/03/28 10:15:41;;;;;;;8.13;7.63;;;10.00;99.90;;;;;;4910760;29;20268;-78
2023/03/28 10:18:46;;;;;;;9.40;8.57;;;9.80;99.90;;;;;;4897701;29;20216;-77
2023/03/28 10:21:33;;;;;;;9.63;8.77;;;10.00;99.90;;;;;;4906490;29;20235;-77
2023/03/28 10:24:14;;;;;;;9.37;8.63;;;10.20;99.90;;;;;;4909119;29;20285;-77
2023/03/28 10:26:44;;;;;;;8.70;8.00;;;10.30;99.90;;;;;;4907788;29;20213;-77
2023/03/28 10:29:14;;;;;;;8.00;7.30;;;10.00;99.90;;;;;;4907141;29;20235;-78
2023/03/28 10:31:47;;;;;;;7.80;7.30;;;10.20;99.90;;;;;;4898328;29;20273;-77
2023/03/28 10:34:32;;;;;;;8.10;7.60;;;10.30;99.90;;;;;;4885873;29;20704;-77
2023/03/28 10:37:01;;;;;;;8.47;7.87;;;10.40;99.90;;;;;;4904885;29;20220;-77
2023/03/28 10:39:58;;;;;;;8.13;7.53;;;10.40;99.90;;;;;;4910198;29;20241;-77
2023/03/28 10:42:45;;;;;;;7.60;6.90;;;10.40;99.90;;;;;;4910471;29;20235;-77
2023/03/28 10:45:43;;;;;;;7.10;6.60;;;10.30;99.90;;;;;;4896906;29;20272;-77
2023/03/28 10:48:16;;;;;;;7.30;6.80;;;10.50;99.90;;;;;;4908247;29;20258;-78
2023/03/28 10:50:47;;;;;;;8.37;7.70;;;10.20;99.90;;;;;;4907389;29;20233;-77
2023/03/28 10:53:40;;;;;;;8.70;7.90;;;9.70;99.90;;;;;;4919144;29;20224;-77
2023/03/28 10:56:23;;;;;;;8.73;7.90;;;9.60;99.90;;;;;;4908267;29;20235;-77
2023/03/28 10:59:09;;;;;;;8.30;7.70;;;9.50;99.90;;;;;;4909053;29;20206;-77
2023/03/28 11:01:46;;;;;;;8.00;7.50;;;9.60;99.90;;;;;;4909184;29;20612;-77
2023/03/28 11:04:27;;;;;;;8.70;7.80;;;9.80;99.90;;;;;;4896192;29;20201;-78
2023/03/28 11:07:01;;;;;;;8.80;8.00;;;9.80;99.90;;;;;;4890579;29;20628;-77
2023/03/28 11:09:58;;;;;;;8.30;7.63;;;9.90;99.90;;;;;;4896537;29;20595;-77
2023/03/28 11:13:00;;;;;;;9.00;8.20;;;9.70;99.90;;;;;;4909822;29;20216;-77
2023/03/28 11:15:39;;;;;;;8.80;8.20;;;9.70;99.90;;;;;;4894642;29;20239;-77
2023/03/28 11:18:36;;;;;;;8.83;8.20;;;9.70;99.90;;;;;;4899601;29;20218;-77
2023/03/28 11:21:19;;;;;;;8.90;8.23;;;9.80;99.90;;;;;;4896798;29;20220;-77
2023/03/28 11:23:52;;;;;;;9.70;8.80;;;9.80;99.90;;;;;;4894442;29;20204;-77
2023/03/28 11:26:49;;;;;;;9.83;9.03;;;9.90;99.90;;;;;;4901875;29;20211;-77
2023/03/28 11:29:51;;;;;;;9.33;8.63;;;9.50;99.90;;;;;;4906687;29;20197;-78
2023/03/28 11:32:26;;;;;;;9.10;8.27;;;9.40;99.90;;;;;;4900431;29;20314;-77
2023/03/28 11:35:03;;;;;;;8.87;8.37;;;9.50;99.90;;;;;;4904688;29;20224;-77
2023/03/28 11:37:36;;;;;;;8.73;8.03;;;9.60;99.90;;;;;;4908237;29;20255;-77
2023/03/28 11:40:09;;;;;;;8.60;8.00;;;9.70;99.90;;;;;;4915885;29;20295;-78
2023/03/28 11:42:51;;;;;;;8.90;8.10;;;9.70;99.90;;;;;;4914061;29;20208;-77
2023/03/28 11:45:26;;;;;;;8.77;8.17;;;9.40;99.90;;;;;;4910047;29;20314;-78
2023/03/28 11:48:04;;;;;;;7.87;7.27;;;9.40;99.90;;;;;;4914694;29;20262;-77
2023/03/28 11:50:41;;;;;;;8.03;7.53;;;9.50;99.90;;;;;;4898526;29;20256;-77
2023/03/28 11:53:24;;;;;;;8.40;7.80;;;9.60;99.90;;;;;;4898648;29;20204;-77
2023/03/28 11:56:05;;;;;;;7.97;7.47;;;9.80;99.90;;;;;;4898529;29;20207;-76
2023/03/28 11:58:59;;;;;;;8.30;7.57;;;9.80;99.90;;;;;;4910885;29;20216;-77
2023/03/28 12:01:31;;;;;;;8.63;8.00;;;9.50;99.90;;;;;;4911060;29;20228;-76
2023/03/28 12:04:05;;;;;;;8.70;8.03;;;9.40;99.90;;;;;;4914422;29;20256;-77
2023/03/28 12:06:37;;;;;;;8.67;8.00;;;9.70;99.90;;;;;;4912820;29;20210;-77
2023/03/28 12:09:12;;;;;;;8.37;7.77;;;9.90;99.90;;;;;;4911736;29;20754;-77
2023/03/28 12:11:43;;;;;;;8.10;7.50;;;10.00;99.90;;;;;;4910773;29;20595;-77
2023/03/28 12:14:40;;;;;;;8.70;8.10;;;9.90;99.90;;;;;;4911446;29;20763;-77
2023/03/28 12:17:22;;;;;;;8.30;7.70;;;9.90;99.90;;;;;;4911704;29;20847;-77
2023/03/28 12:19:49;;;;;;;8.33;7.80;;;10.00;99.90;;;;;;4914108;29;20192;-77
2023/03/28 12:22:22;;;;;;;8.80;8.17;;;10.10;99.90;;;;;;4912028;29;20252;-77
2023/03/28 12:24:57;;;;;;;7.50;7.00;;;10.30;99.90;;;;;;4914482;29;20205;-77
2023/03/28 12:27:42;;;;;;;7.80;7.10;;;10.40;99.90;;;;;;4898957;29;20270;-77
2023/03/28 12:30:24;;;;;;;8.80;8.10;;;10.50;99.90;;;;;;4914302;29;20236;-77
2023/03/28 12:33:05;;;;;;;8.43;7.83;;;10.70;99.90;;;;;;4905835;29;20740;-77
2023/03/28 12:35:47;;;;;;;8.93;7.90;;;10.80;99.90;;;;;;4919594;29;20225;-77
2023/03/28 12:38:30;;;;;;;8.50;7.90;;;11.00;99.90;;;;;;4916538;29;20201;-77
2023/03/28 12:41:11;;;;;;;9.00;8.40;;;10.90;99.90;;;;;;4915125;29;20216;-77
2023/03/28 12:43:45;;;;;;;8.60;7.90;;;11.00;99.90;;;;;;4906144;29;20296;-77
2023/03/28 12:46:21;;;;;;;10.43;9.80;;;11.10;99.90;;;;;;4909501;29;20244;-77
2023/03/28 12:48:53;;;;;;;7.40;6.90;;;11.00;99.90;;;;;;4913131;29;20708;-77
2023/03/28 12:51:30;;;;;;;7.60;7.10;;;10.90;99.90;;;;;;4912786;29;20226;-77
2023/03/28 12:54:06;;;;;;;7.47;6.97;;;10.90;99.90;;;;;;4911769;29;20218;-78
2023/03/28 12:56:33;;;;;;;7.67;6.93;;;11.10;99.90;;;;;;4912495;29;20245;-78
2023/03/28 12:59:31;;;;;;;6.50;6.10;;;11.10;99.90;;;;;;4907244;29;20266;-78
2023/03/28 13:02:05;;;;;;;5.53;5.07;;;11.20;99.90;;;;;;4912138;29;20339;-78
2023/03/28 13:04:44;;;;;;;7.17;6.67;;;11.20;99.90;;;;;;4912596;29;20247;-78
2023/03/28 13:07:24;;;;;;;7.20;6.60;;;11.20;99.90;;;;;;4911392;29;21871;-76
2023/03/28 13:09:59;;;;;;;7.23;6.73;;;11.00;99.60;;;;;;4914422;29;20635;-78
2023/03/28 13:12:33;;;;;;;7.47;6.77;;;10.90;99.90;;;;;;4900850;29;20333;-78
2023/03/28 13:15:02;;;;;;;7.93;7.13;;;10.80;99.90;;;;;;4914867;29;20292;-78
2023/03/28 13:17:33;;;;;;;7.10;6.60;;;10.70;99.90;;;;;;4903071;29;20231;-77
2023/03/28 13:20:24;;;;;;;7.00;6.50;;;10.50;99.90;;;;;;4910446;29;20238;-78
2023/03/28 13:22:53;;;;;;;7.30;6.80;;;10.40;99.90;;;;;;4924500;29;20761;-78
2023/03/28 13:25:26;;;;;;;6.87;6.47;;;10.40;99.90;;;;;;4912448;29;20669;-79
2023/03/28 13:27:55;;;;;;;7.83;7.20;;;10.20;99.90;;;;;;4903689;29;20201;-77
2023/03/28 13:30:25;;;;;;;8.10;7.50;;;10.10;99.90;;;;;;4905254;29;20209;-77
2023/03/28 13:32:56;;;;;;;8.40;7.70;;;10.00;99.90;;;;;;4901447;29;20300;-78
2023/03/28 13:35:47;;;;;;;8.20;7.70;;;9.90;99.90;;;;;;4890126;29;20280;-78
2023/03/28 13:38:45;;;;;;;8.43;7.63;;;9.90;99.90;;;;;;4893429;29;20244;-78
2023/03/28 13:41:33;;;;;;;7.93;7.37;;;9.80;99.90;;;;;;4909962;29;20307;-78
2023/03/28 13:44:02;;;;;;;8.27;7.67;;;9.80;99.90;;;;;;4910403;29;20279;-77
2023/03/28 13:46:33;;;;;;;7.90;7.30;;;9.70;99.90;;;;;;4914998;29;20904;-77
2023/03/28 13:49:06;;;;;;;8.70;8.00;;;9.80;99.90;;;;;;4907021;29;20208;-77
2023/03/28 13:51:39;;;;;;;8.50;7.80;;;9.80;99.90;;;;;;4913489;29;20307;-78
2023/03/28 13:54:08;;;;;;;8.40;7.60;;;10.00;99.90;;;;;;4917184;29;20221;-78
2023/03/28 13:56:39;;;;;;;8.40;7.80;;;10.10;99.90;;;;;;4916525;29;20217;-78
2023/03/28 13:59:07;;;;;;;9.23;8.13;;;10.00;99.90;;;;;;4919332;29;20206;-78
2023/03/28 14:01:36;;;;;;;7.70;7.20;;;10.00;99.90;;;;;;4913577;29;20220;-78
2023/03/28 14:04:10;;;;;;;7.90;7.40;;;10.10;99.90;;;;;;4910029;29;20204;-77
2023/03/28 14:06:41;;;;;;;8.47;7.77;;;10.10;99.90;;;;;;4912046;29;20203;-79
2023/03/28 14:09:15;;;;;;;8.80;8.00;;;10.20;99.90;;;;;;4909308;29;20196;-77
2023/03/28 14:11:43;;;;;;;8.63;7.83;;;10.10;99.90;;;;;;4909909;29;20250;-78
2023/03/28 14:14:14;;;;;;;8.10;7.50;;;10.20;99.90;;;;;;4910358;29;20243;-78
2023/03/28 14:16:42;;;;;;;8.40;7.60;;;10.10;99.90;;;;;;4912283;29;20214;-77
2023/03/28 14:19:16;;;;;;;7.80;7.30;;;9.90;99.90;;;;;;4913074;29;20202;-77
2023/03/28 14:21:43;;;;;;;8.00;7.30;;;9.90;99.90;;;;;;4914537;29;20710;-78
2023/03/28 14:24:15;;;;;;;8.40;7.80;;;9.90;99.90;;;;;;4914164;29;20208;-78
2023/03/28 14:26:42;;;;;;;7.83;7.23;;;10.00;99.90;;;;;;4911526;29;20202;-78
2023/03/28 14:29:12;;;;;;;8.53;7.80;;;10.10;99.90;;;;;;4902512;29;20196;-77
2023/03/28 14:31:44;;;;;;;8.30;7.60;;;10.20;99.90;;;;;;4903556;29;20213;-78
2023/03/28 14:34:23;;;;;;;7.80;7.30;;;10.30;99.90;;;;;;4898911;29;20260;-78
2023/03/28 14:36:59;;;;;;;7.90;7.30;;;10.40;99.90;;;;;;4909458;29;20224;-77
2023/03/28 14:39:28;;;;;;;7.70;7.20;;;10.50;99.90;;;;;;4913404;29;20217;-77
2023/03/28 14:41:59;;;;;;;8.20;7.50;;;10.50;99.90;;;;;;4910944;29;20716;-77
2023/03/28 14:44:26;;;;;;;8.50;8.00;;;10.50;99.90;;;;;;4907785;29;20189;-77
2023/03/28 14:46:57;;;;;;;8.00;7.50;;;10.50;99.90;;;;;;4909294;29;20197;-78
2023/03/28 14:49:26;;;;;;;8.10;7.60;;;10.30;99.90;;;;;;4913914;29;20683;-78
2023/03/28 14:51:57;;;;;;;8.80;8.00;;;10.30;99.90;;;;;;4910931;29;20311;-77
2023/03/28 14:54:28;;;;;;;8.70;8.00;;;10.40;99.90;;;;;;4902723;29;20464;-78
2023/03/28 14:56:58;;;;;;;8.00;7.40;;;10.40;99.90;;;;;;4899217;29;20202;-79
2023/03/28 14:59:33;;;;;;;8.30;7.70;;;10.40;99.90;;;;;;4912706;29;20201;-79
2023/03/28 15:02:04;;;;;;;8.03;7.53;;;10.40;99.90;;;;;;4909957;29;20235;-80
2023/03/28 15:04:32;;;;;;;8.67;7.97;;;10.40;99.90;;;;;;4905235;29;20231;-78
2023/03/28 15:06:59;;;;;;;8.60;7.80;;;10.20;99.90;;;;;;4905367;29;20200;-79
2023/03/28 15:09:32;;;;;;;8.50;7.90;;;10.10;99.90;;;;;;4899731;29;20205;-79
2023/03/28 15:12:03;;;;;;;9.37;7.70;;;10.10;99.90;;;;;;4897099;29;20276;-80
2023/03/28 15:14:35;;;;;;;8.00;7.40;;;10.10;99.90;;;;;;4893768;29;20759;-80
2023/03/28 15:17:02;;;;;;;8.33;7.60;;;10.10;99.90;;;;;;4897662;29;20307;-79
2023/03/28 15:19:36;;;;;;;8.63;8.00;;;10.00;99.90;;;;;;4896670;29;20208;-80
2023/03/28 15:22:08;;;;;;;8.00;7.50;;;10.00;99.90;;;;;;4898132;29;20220;-79
2023/03/28 15:24:36;;;;;;;8.47;7.60;;;10.10;99.90;;;;;;4892900;29;20224;-81